Time;durP1;ratioP1;P1;durP2;ratioP2;P2;SDS_P1;SDS_P2;PMS_P1;PMS_P2;Temp;Humidity;BMP_temperature;BMP_pressure;BME280_temperature;BME280_humidity;BME280_pressure;Samples;Min_cycle;Max_cycle;Signal;HPM_P1;HPM_P2
2023/04/07 00:00:17;;;;;;;17.63;13.75;;;;;;;-146.25;81.38;52133.00;2080967;28;30704;-78
2023/04/07 00:01:18;;;;;;;19.40;14.38;;;;;;;-146.25;82.56;52137.06;2071448;28;32727;-78
2023/04/07 00:02:20;;;;;;;19.38;14.75;;;;;;;-146.25;82.46;52128.94;2071890;28;33957;-77
2023/04/07 00:03:24;;;;;;;22.90;15.73;;;;;;;-146.25;82.51;52135.03;2080874;28;35303;-77
2023/04/07 00:04:26;;;;;;;18.65;14.75;;;;;;;-146.25;82.43;52165.44;2080750;28;33122;-76
2023/04/07 00:05:28;;;;;;;21.35;15.25;;;;;;;-146.25;81.93;52120.84;2080472;28;33950;-81
2023/04/07 00:06:30;;;;;;;19.20;14.52;;;;;;;-146.25;81.64;52108.66;2080284;28;36581;-76
2023/04/07 00:07:32;;;;;;;20.35;15.00;;;;;;;-146.25;81.32;52149.22;2081073;28;20793;-77
2023/04/07 00:08:40;;;;;;;21.35;15.70;;;;;;;-146.25;81.75;52106.66;2080570;28;34331;-77
2023/04/07 00:09:41;;;;;;;19.77;15.77;;;;;;;-146.25;81.83;52139.09;2080454;28;38768;-76
2023/04/07 00:10:43;;;;;;;21.55;16.00;;;;;;;-146.25;81.59;52135.03;2080774;28;35217;-76
2023/04/07 00:11:45;;;;;;;19.25;14.73;;;;;;;-146.25;81.86;52151.25;2080419;28;33761;-75
2023/04/07 00:12:49;;;;;;;18.90;15.07;;;;;;;-146.25;81.52;52163.41;2080684;28;20939;-76
2023/04/07 00:13:50;;;;;;;23.15;15.75;;;;;;;-146.25;81.31;52145.16;2079929;28;37746;-78
2023/04/07 00:14:52;;;;;;;22.45;16.33;;;;;;;-146.25;80.61;52133.00;2081225;28;20161;-76
2023/04/07 00:15:56;;;;;;;19.48;14.77;;;;;;;-146.25;80.82;52133.00;2080846;28;20061;-77
2023/04/07 00:16:58;;;;;;;20.25;14.52;;;;;;;-146.25;81.57;52112.72;2080657;28;34173;-77
2023/04/07 00:18:00;;;;;;;22.20;16.35;;;;;;;-146.25;81.02;52177.59;2079632;28;33049;-76
2023/04/07 00:19:02;;;;;;;23.63;16.50;;;;;;;-146.25;81.59;52116.78;2080103;28;32800;-77
2023/04/07 00:20:04;;;;;;;20.23;16.00;;;;;;;-146.25;81.49;52126.91;2080264;28;35125;-76
2023/04/07 00:21:06;;;;;;;19.75;15.98;;;;;;;-146.25;81.78;52169.50;2081377;28;20136;-75
2023/04/07 00:22:08;;;;;;;24.48;16.20;;;;;;;-146.25;81.13;52110.69;2080192;28;36808;-76
2023/04/07 00:23:10;;;;;;;23.27;16.25;;;;;;;-146.25;81.06;52139.09;2080111;28;37547;-76
2023/04/07 00:24:11;;;;;;;20.67;15.60;;;;;;;-146.25;81.29;52155.31;2080332;28;33985;-76
2023/04/07 00:25:16;;;;;;;20.13;15.30;;;;;;;-146.25;81.12;52137.06;2080913;28;20089;-77
2023/04/07 00:26:18;;;;;;;19.50;15.23;;;;;;;-146.25;81.11;52161.38;2080570;28;36257;-76
2023/04/07 00:27:22;;;;;;;21.75;15.43;;;;;;;-146.25;81.89;52163.41;2080836;28;20082;-77
2023/04/07 00:28:23;;;;;;;19.13;15.15;;;;;;;-146.25;82.04;52116.78;2080285;28;29079;-76
2023/04/07 00:29:25;;;;;;;21.15;15.85;;;;;;;-146.25;82.19;52112.72;2080265;28;30691;-76
2023/04/07 00:30:27;;;;;;;18.52;15.32;;;;;;;-146.25;82.12;52124.91;2080770;28;22704;-76
2023/04/07 00:31:29;;;;;;;20.48;15.02;;;;;;;-146.25;82.49;52137.06;2080659;28;20044;-78
2023/04/07 00:32:30;;;;;;;18.33;14.63;;;;;;;-146.25;81.99;52139.09;2071692;28;28438;-78
2023/04/07 00:33:33;;;;;;;22.42;15.57;;;;;;;-146.25;83.17;52153.28;2063991;28;20046;-78
2023/04/07 00:34:38;;;;;;;22.48;15.18;;;;;;;-146.25;82.72;52147.19;2063797;28;23676;-78
2023/04/07 00:35:40;;;;;;;19.17;15.40;;;;;;;-146.25;82.71;52157.34;2063881;28;32752;-76
2023/04/07 00:36:41;;;;;;;19.33;14.82;;;;;;;-146.25;83.02;52128.94;2072479;28;20165;-76
2023/04/07 00:37:43;;;;;;;19.92;14.52;;;;;;;-146.25;82.66;52161.38;2080398;28;27510;-76
2023/04/07 00:38:45;;;;;;;20.33;15.30;;;;;;;-146.25;83.28;52167.47;2080654;28;39902;-76
2023/04/07 00:39:47;;;;;;;24.92;16.85;;;;;;;-146.25;83.36;52159.34;2080836;28;27733;-76
2023/04/07 00:40:58;;;;;;;21.27;15.70;;;;;;;-146.25;82.96;52128.94;2080383;28;27930;-76
2023/04/07 00:42:04;;;;;;;20.27;15.57;;;;;;;-146.25;83.30;52137.06;2063906;28;20900;-77
2023/04/07 00:43:06;;;;;;;23.48;16.02;;;;;;;-146.25;84.84;52130.97;2065889;28;20114;-77
2023/04/07 00:44:11;;;;;;;22.38;15.63;;;;;;;-146.25;83.30;52157.34;2080053;28;27887;-76
2023/04/07 00:45:13;;;;;;;22.98;15.80;;;;;;;-146.25;83.46;52137.06;2063860;28;22436;-75
2023/04/07 00:46:15;;;;;;;20.98;15.70;;;;;;;-146.25;83.70;52149.22;2063648;28;27199;-76
2023/04/07 00:47:16;;;;;;;22.00;15.30;;;;;;;-146.25;84.63;52135.03;2072017;28;20043;-77
2023/04/07 00:48:19;;;;;;;21.17;16.13;;;;;;;-146.25;84.67;52165.44;2072235;28;30024;-76
2023/04/07 00:49:21;;;;;;;19.90;15.35;;;;;;;-146.25;84.70;52141.13;2080003;28;26570;-76
2023/04/07 00:50:23;;;;;;;21.65;16.65;;;;;;;-146.25;85.67;52165.44;2071840;28;32737;-76
2023/04/07 00:51:25;;;;;;;23.20;16.13;;;;;;;-146.25;85.45;52181.66;2063750;28;20161;-77
2023/04/07 00:52:31;;;;;;;24.25;16.05;;;;;;;-146.25;85.92;52124.91;2055944;28;20044;-77
2023/04/07 00:53:33;;;;;;;23.58;16.45;;;;;;;-146.25;86.43;52128.94;2064884;28;27443;-77
2023/04/07 00:54:35;;;;;;;22.30;15.52;;;;;;;-146.25;86.01;52120.84;2080258;28;23029;-77
2023/04/07 00:55:36;;;;;;;20.02;15.82;;;;;;;-146.25;85.71;52128.94;2071429;28;30692;-77
2023/04/07 00:56:39;;;;;;;22.67;15.38;;;;;;;-146.25;85.69;52143.13;2072480;28;20227;-77
2023/04/07 00:57:45;;;;;;;21.55;15.55;;;;;;;-146.25;86.12;52118.81;2071750;28;20888;-77
2023/04/07 00:58:47;;;;;;;24.55;16.48;;;;;;;-146.25;86.36;52116.78;2072586;28;20102;-77
2023/04/07 00:59:51;;;;;;;22.00;16.48;;;;;;;-146.25;86.11;52143.13;2071658;28;20042;-77
2023/04/07 01:01:12;;;;;;;20.30;15.75;;;;;;;-146.25;86.21;52118.81;2071940;28;31127;-77
2023/04/07 01:02:31;;;;;;;19.65;15.02;;;;;;;-146.25;85.61;52124.91;2080648;28;20045;-77
2023/04/07 01:03:43;;;;;;;20.05;14.65;;;;;;;-146.25;85.15;52165.44;2080750;28;23710;-76
2023/04/07 01:05:09;;;;;;;23.60;15.23;;;;;;;-146.25;84.77;52147.19;2071975;28;20221;-76
2023/04/07 01:06:16;;;;;;;23.00;16.17;;;;;;;-146.25;85.20;52139.09;2067135;28;20043;-76
2023/04/07 01:07:38;;;;;;;22.23;15.73;;;;;;;-146.25;85.17;52157.34;2064763;28;20039;-76
2023/04/07 01:09:18;;;;;;;23.70;16.75;;;;;;;-146.25;84.74;52118.81;2067440;28;20153;-74
2023/04/07 01:10:34;;;;;;;20.42;15.88;;;;;;;-146.25;84.20;52159.34;2061469;28;20124;-78
2023/04/07 01:11:58;;;;;;;24.38;16.85;;;;;;;-146.25;84.52;52153.28;2057891;28;20888;-78
2023/04/07 01:13:08;;;;;;;22.97;16.67;;;;;;;-146.25;84.52;52155.31;2063008;28;20938;-78
2023/04/07 01:14:14;;;;;;;21.65;16.58;;;;;;;-146.25;83.92;52157.34;2065109;28;20051;-78
2023/04/07 01:15:23;;;;;;;22.65;16.90;;;;;;;-146.25;84.04;52163.41;2064623;28;20035;-78
2023/04/07 01:16:41;;;;;;;23.80;17.20;;;;;;;-146.25;84.52;52183.69;2056650;28;20051;-77
2023/04/07 01:17:51;;;;;;;22.52;16.63;;;;;;;-146.25;83.50;52141.13;2057614;28;20282;-76
2023/04/07 01:19:00;;;;;;;24.25;17.13;;;;;;;-146.25;83.41;52149.22;2067655;28;24844;-76
2023/04/07 01:20:06;;;;;;;22.10;16.90;;;;;;;-146.25;83.10;52128.94;2071630;28;20046;-76
2023/04/07 01:21:16;;;;;;;25.67;17.00;;;;;;;-146.25;83.49;52157.34;2072559;28;20050;-76
2023/04/07 01:22:27;;;;;;;24.00;18.20;;;;;;;-146.25;83.34;52161.38;2071805;28;20053;-76
2023/04/07 01:24:19;;;;;;;23.25;16.60;;;;;;;-146.25;83.55;52128.94;2064944;28;20097;-76
2023/04/07 01:25:53;;;;;;;25.10;17.33;;;;;;;-146.25;83.21;52141.13;2062262;28;20047;-76
2023/04/07 01:27:12;;;;;;;25.05;17.05;;;;;;;-146.25;82.41;52124.91;2067871;28;20042;-77
2023/04/07 01:28:42;;;;;;;23.23;16.67;;;;;;;-146.25;82.31;52157.34;2074388;28;20038;-76
2023/04/07 01:29:49;;;;;;;23.58;17.40;;;;;;;-146.25;81.76;52137.06;2071413;28;20132;-76
2023/04/07 01:30:55;;;;;;;23.48;17.15;;;;;;;-146.25;81.33;52124.91;2072080;28;30499;-77
2023/04/07 01:32:00;;;;;;;23.15;17.30;;;;;;;-146.25;81.13;52159.34;2071882;28;20042;-76
2023/04/07 01:33:05;;;;;;;26.25;18.40;;;;;;;-146.25;80.84;52161.38;2062480;28;39014;-75
2023/04/07 01:34:11;;;;;;;24.08;17.55;;;;;;;-146.25;80.34;52128.94;2056053;28;34642;-76
2023/04/07 01:35:14;;;;;;;24.92;17.88;;;;;;;-146.25;79.80;52149.22;2057224;28;21107;-78
2023/04/07 01:36:17;;;;;;;23.42;16.65;;;;;;;-146.25;79.58;52149.22;2072463;28;20061;-75
2023/04/07 01:37:20;;;;;;;23.52;17.17;;;;;;;-146.25;79.67;52122.88;2071603;28;20771;-76
2023/04/07 01:38:23;;;;;;;24.98;17.00;;;;;;;-146.25;79.23;52187.75;2063881;28;22916;-76
2023/04/07 01:39:27;;;;;;;27.27;18.02;;;;;;;-146.25;78.51;52139.09;2073050;28;20165;-76
2023/04/07 01:40:32;;;;;;;23.77;17.90;;;;;;;-146.25;78.19;52112.72;2071701;28;21108;-76
2023/04/07 01:41:36;;;;;;;23.70;17.10;;;;;;;-146.25;78.41;52165.44;2071250;28;27319;-76
2023/04/07 01:42:39;;;;;;;24.60;17.35;;;;;;;-146.25;78.19;52116.78;2071604;28;21211;-76
2023/04/07 01:43:42;;;;;;;24.38;17.40;;;;;;;-146.25;77.85;52118.81;2071634;28;31841;-76
2023/04/07 01:44:47;;;;;;;22.88;15.93;;;;;;;-146.25;77.77;52108.66;2079708;28;24533;-76
2023/04/07 01:45:50;;;;;;;21.80;15.52;;;;;;;-146.25;77.13;52137.06;2063084;28;23145;-76
2023/04/07 01:46:54;;;;;;;24.38;16.95;;;;;;;-146.25;77.39;52155.31;2055797;28;32525;-76
2023/04/07 01:47:59;;;;;;;22.92;16.42;;;;;;;-146.25;76.87;52137.06;2055991;28;20774;-76
2023/04/07 01:49:03;;;;;;;23.05;16.35;;;;;;;-146.25;76.72;52133.00;2065411;28;20043;-76
2023/04/07 01:50:10;;;;;;;24.15;16.38;;;;;;;-146.25;76.17;52159.34;2070945;28;29276;-76
2023/04/07 01:51:16;;;;;;;22.45;15.80;;;;;;;-146.25;76.52;52128.94;2064817;28;22579;-76
2023/04/07 01:52:19;;;;;;;24.02;16.15;;;;;;;-146.25;76.51;52094.47;2064489;28;37573;-76
2023/04/07 01:53:22;;;;;;;25.27;16.40;;;;;;;-146.25;76.34;52126.91;2063784;28;30164;-75
2023/04/07 01:54:26;;;;;;;24.35;16.50;;;;;;;-146.25;76.36;52118.81;2063909;28;20148;-76
2023/04/07 01:55:28;;;;;;;22.05;15.75;;;;;;;-146.25;75.39;52122.88;2063828;28;21338;-75
2023/04/07 01:56:36;;;;;;;21.15;15.27;;;;;;;-146.25;74.35;52124.91;2064540;28;20035;-76
2023/04/07 01:57:42;;;;;;;22.08;15.48;;;;;;;-146.25;73.62;52102.59;2063837;28;20040;-76
2023/04/07 01:58:50;;;;;;;21.85;14.77;;;;;;;-146.25;72.00;52133.00;2056734;28;20117;-76
2023/04/07 01:59:54;;;;;;;21.88;15.25;;;;;;;-146.25;72.18;52151.25;2056588;28;20050;-76
2023/04/07 02:00:58;;;;;;;22.13;15.95;;;;;;;-146.25;71.87;52141.13;2062233;28;20527;-76
2023/04/07 02:02:00;;;;;;;25.25;16.10;;;;;;;-146.25;70.76;52157.34;2071541;28;20089;-76
2023/04/07 02:03:19;;;;;;;22.02;15.15;;;;;;;-146.25;71.00;52159.34;2055287;28;20630;-76
2023/04/07 02:04:34;;;;;;;23.05;14.90;;;;;;;-146.25;70.92;52122.88;2060087;28;20961;-76
2023/04/07 02:05:40;;;;;;;21.90;14.45;;;;;;;-146.25;70.63;52128.94;2057334;28;20873;-77
2023/04/07 02:06:53;;;;;;;21.63;15.13;;;;;;;-146.25;70.78;52133.00;2058779;28;20055;-76
2023/04/07 02:08:07;;;;;;;21.00;14.05;;;;;;;-146.25;70.42;52122.88;2065480;28;20090;-75
2023/04/07 02:09:14;;;;;;;19.30;13.63;;;;;;;-146.25;69.67;52116.78;2063729;28;20047;-76
2023/04/07 02:10:21;;;;;;;17.52;12.93;;;;;;;-146.25;69.47;52102.59;2056170;28;20047;-76
2023/04/07 02:11:27;;;;;;;20.23;14.15;;;;;;;-146.25;68.67;52141.13;2057604;28;20882;-76
2023/04/07 02:12:37;;;;;;;19.10;12.27;;;;;;;-146.25;69.00;52128.94;2063854;28;20046;-76
2023/04/07 02:13:46;;;;;;;18.70;12.65;;;;;;;-146.25;68.69;52147.19;2062632;28;20051;-76
2023/04/07 02:14:49;;;;;;;20.65;13.40;;;;;;;-146.25;68.78;52133.00;2048720;28;20052;-76
2023/04/07 02:15:54;;;;;;;19.23;12.38;;;;;;;-146.25;68.15;52133.00;2064142;28;20042;-76
2023/04/07 02:16:59;;;;;;;18.17;12.77;;;;;;;-146.25;68.95;52147.19;2063425;28;20046;-76
2023/04/07 02:18:03;;;;;;;16.50;11.88;;;;;;;-146.25;68.81;52159.34;2048301;28;20047;-76
2023/04/07 02:19:05;;;;;;;17.73;12.27;;;;;;;-146.25;68.13;52141.13;2054940;28;31140;-76
2023/04/07 02:20:09;;;;;;;20.90;12.65;;;;;;;-146.25;68.07;52133.00;2063644;28;33559;-76
2023/04/07 02:21:14;;;;;;;18.35;12.07;;;;;;;-146.25;67.50;52143.13;2071179;28;20160;-76
2023/04/07 02:22:19;;;;;;;16.20;11.38;;;;;;;-146.25;67.13;52165.44;2073309;28;20128;-76
2023/04/07 02:23:21;;;;;;;17.48;11.95;;;;;;;-146.25;67.64;52155.31;2079970;28;20038;-75
2023/04/07 02:24:22;;;;;;;17.13;11.93;;;;;;;-146.25;67.73;52086.38;2063417;28;20193;-76
2023/04/07 02:25:27;;;;;;;15.63;11.32;;;;;;;-146.25;67.40;52153.28;2055845;28;20047;-76
2023/04/07 02:26:34;;;;;;;18.33;11.93;;;;;;;-146.25;66.59;52145.16;2063159;28;26846;-76
2023/04/07 02:27:36;;;;;;;16.45;11.18;;;;;;;-146.25;67.05;52181.66;2064268;28;20978;-76
2023/04/07 02:28:38;;;;;;;17.35;11.40;;;;;;;-146.25;67.13;52128.94;2071598;28;20038;-76
2023/04/07 02:29:40;;;;;;;19.05;11.65;;;;;;;-146.25;66.80;52124.91;2062821;28;20094;-76
2023/04/07 02:30:43;;;;;;;18.38;11.63;;;;;;;-146.25;66.82;52133.00;2055704;28;20952;-76
2023/04/07 02:31:45;;;;;;;15.95;10.82;;;;;;;-146.25;66.58;52128.94;2070906;28;27827;-76
2023/04/07 02:32:50;;;;;;;16.95;11.43;;;;;;;-146.25;66.76;52155.31;2079353;28;20442;-75
2023/04/07 02:33:51;;;;;;;16.30;11.10;;;;;;;-146.25;67.54;52122.88;2079671;28;20073;-76
2023/04/07 02:34:54;;;;;;;18.10;11.32;;;;;;;-146.25;67.16;52149.22;2080379;28;20068;-75
2023/04/07 02:35:55;;;;;;;15.38;11.35;;;;;;;-146.25;67.71;52135.03;2080018;28;24095;-76
2023/04/07 02:36:57;;;;;;;15.88;11.23;;;;;;;-146.25;67.81;52157.34;2080306;28;20138;-76
2023/04/07 02:38:01;;;;;;;15.32;10.95;;;;;;;-146.25;67.47;52098.53;2071410;28;20042;-76
2023/04/07 02:39:03;;;;;;;15.40;10.77;;;;;;;-146.25;67.81;52141.13;2070817;28;35237;-76
2023/04/07 02:40:06;;;;;;;18.20;11.23;;;;;;;-146.25;67.32;52175.56;2080068;28;20927;-76
2023/04/07 02:41:07;;;;;;;16.27;11.07;;;;;;;-146.25;66.89;52128.94;2079639;28;28887;-76
2023/04/07 02:42:09;;;;;;;14.25;10.35;;;;;;;-146.25;67.32;52161.38;2079307;28;35558;-76
2023/04/07 02:43:11;;;;;;;16.20;11.18;;;;;;;-146.25;67.30;52137.06;2080068;28;26441;-76
2023/04/07 02:44:15;;;;;;;17.52;10.93;;;;;;;-146.25;67.13;52143.13;2079964;28;20808;-76
2023/04/07 02:45:16;;;;;;;14.88;10.40;;;;;;;-146.25;67.22;52141.13;2079433;28;30671;-76
2023/04/07 02:46:18;;;;;;;14.68;10.15;;;;;;;-146.25;67.28;52191.81;2071121;28;20849;-76
2023/04/07 02:47:20;;;;;;;15.23;10.50;;;;;;;-146.25;67.48;52135.03;2071156;28;20042;-76
2023/04/07 02:48:23;;;;;;;16.23;9.98;;;;;;;-146.25;67.08;52167.47;2071519;28;20197;-76
2023/04/07 02:49:28;;;;;;;17.27;10.52;;;;;;;-146.25;67.34;52128.94;2063454;28;20372;-76
2023/04/07 02:50:29;;;;;;;15.25;10.10;;;;;;;-146.25;67.00;52108.66;2070470;28;31540;-76
2023/04/07 02:51:31;;;;;;;17.02;10.43;;;;;;;-146.25;67.88;52128.94;2080072;28;20031;-76
2023/04/07 02:52:33;;;;;;;16.42;10.35;;;;;;;-146.25;67.71;52157.34;2079801;28;20046;-76
2023/04/07 02:53:37;;;;;;;15.23;10.07;;;;;;;-146.25;67.77;52149.22;2071267;28;20946;-76
2023/04/07 02:54:40;;;;;;;15.35;10.55;;;;;;;-146.25;67.76;52165.44;2063029;28;20056;-76
2023/04/07 02:55:45;;;;;;;15.07;10.60;;;;;;;-146.25;67.47;52139.09;2063235;28;20069;-76
2023/04/07 02:56:46;;;;;;;13.85;10.13;;;;;;;-146.25;67.46;52185.72;2071740;28;20074;-76
2023/04/07 02:57:48;;;;;;;15.75;10.80;;;;;;;-146.25;67.81;52110.69;2071110;28;20042;-76
2023/04/07 02:59:04;;;;;;;18.42;10.45;;;;;;;-146.25;67.07;52137.06;2065154;28;20050;-76
2023/04/07 03:00:11;;;;;;;13.57;10.27;;;;;;;-146.25;67.42;52151.25;2063656;28;20086;-76
2023/04/07 03:01:39;;;;;;;15.07;9.23;;;;;;;-146.25;68.00;52167.47;2072900;28;20169;-75
2023/04/07 03:02:42;;;;;;;14.88;10.10;;;;;;;-146.25;67.46;52128.94;2071173;28;20038;-76
2023/04/07 03:03:46;;;;;;;13.70;10.13;;;;;;;-146.25;67.14;52153.28;2071093;28;20043;-76
2023/04/07 03:04:53;;;;;;;14.57;10.18;;;;;;;-146.25;67.68;52118.81;2064038;28;20039;-76
2023/04/07 03:05:59;;;;;;;12.18;8.90;;;;;;;-146.25;67.53;52151.25;2063586;28;20078;-77
2023/04/07 03:07:00;;;;;;;15.25;10.52;;;;;;;-146.25;67.76;52167.47;2063046;28;20166;-76
2023/04/07 03:08:05;;;;;;;14.98;10.32;;;;;;;-146.25;67.71;52147.19;2063320;28;20031;-76
2023/04/07 03:09:06;;;;;;;15.93;10.05;;;;;;;-146.25;67.92;52076.22;2070854;28;20812;-76
2023/04/07 03:10:09;;;;;;;14.43;10.50;;;;;;;-146.25;67.84;52133.00;2079634;28;20182;-76
2023/04/07 03:11:11;;;;;;;17.50;10.00;;;;;;;-146.25;67.74;52183.69;2079510;28;20897;-76
2023/04/07 03:12:13;;;;;;;14.55;9.90;;;;;;;-146.25;67.82;52163.41;2079101;28;29519;-76
2023/04/07 03:13:18;;;;;;;14.80;10.27;;;;;;;-146.25;67.53;52159.34;2070901;28;20900;-76
2023/04/07 03:14:20;;;;;;;15.63;10.65;;;;;;;-146.25;67.66;52183.69;2063408;28;20055;-76
2023/04/07 03:15:24;;;;;;;18.60;10.63;;;;;;;-146.25;67.02;52161.38;2063187;28;20911;-76
2023/04/07 03:16:26;;;;;;;19.63;10.07;;;;;;;-146.25;66.78;52118.81;2071169;28;20128;-76
2023/04/07 03:17:42;;;;;;;14.55;9.80;;;;;;;-146.25;67.38;52143.13;2071168;28;20082;-76
2023/04/07 03:18:44;;;;;;;15.68;10.57;;;;;;;-146.25;67.23;52137.06;2062764;28;20074;-77
2023/04/07 03:19:46;;;;;;;15.52;10.25;;;;;;;-146.25;67.16;52181.66;2062719;28;20031;-76
2023/04/07 03:20:48;;;;;;;14.52;10.68;;;;;;;-146.25;66.55;52133.00;2071917;28;22218;-76
2023/04/07 03:21:51;;;;;;;13.45;10.30;;;;;;;-146.25;67.10;52116.78;2072615;28;20204;-76
2023/04/07 03:22:53;;;;;;;15.60;10.20;;;;;;;-146.25;66.29;52130.97;2072552;28;20051;-76
2023/04/07 03:23:59;;;;;;;17.95;10.20;;;;;;;-146.25;66.01;52159.34;2065286;28;20050;-76
2023/04/07 03:25:01;;;;;;;16.77;10.05;;;;;;;-146.25;66.92;52137.06;2072227;28;26053;-76
2023/04/07 03:26:03;;;;;;;16.15;10.20;;;;;;;-146.25;66.41;52128.94;2081489;28;20061;-76
2023/04/07 03:27:09;;;;;;;14.32;9.88;;;;;;;-146.25;66.02;52139.09;2064562;28;20985;-76
2023/04/07 03:28:18;;;;;;;14.43;10.38;;;;;;;-146.25;66.23;52165.44;2058961;28;20055;-76
2023/04/07 03:29:20;;;;;;;15.27;10.23;;;;;;;-146.25;66.73;52096.50;2072491;28;20045;-76
2023/04/07 03:30:22;;;;;;;15.75;10.43;;;;;;;-146.25;66.76;52155.31;2064301;28;20927;-76
2023/04/07 03:31:24;;;;;;;17.38;10.50;;;;;;;-146.25;66.01;52159.34;2064512;28;20927;-77
2023/04/07 03:32:27;;;;;;;17.35;9.75;;;;;;;-146.25;66.54;52167.47;2072509;28;20100;-76
2023/04/07 03:33:30;;;;;;;17.25;10.38;;;;;;;-146.25;66.32;52104.63;2072886;28;20047;-76
2023/04/07 03:34:34;;;;;;;16.50;10.80;;;;;;;-146.25;65.68;52149.22;2072223;28;20050;-76
2023/04/07 03:35:36;;;;;;;15.60;9.90;;;;;;;-146.25;65.66;52133.00;2064269;28;20043;-76
2023/04/07 03:36:38;;;;;;;16.33;10.00;;;;;;;-146.25;65.87;52130.97;2064445;28;20916;-77
2023/04/07 03:37:39;;;;;;;15.50;10.18;;;;;;;-146.25;65.86;52155.31;2064348;28;20101;-77
2023/04/07 03:38:47;;;;;;;15.52;10.27;;;;;;;-146.25;65.84;52133.00;2065284;28;20869;-76
2023/04/07 03:39:51;;;;;;;14.13;10.70;;;;;;;-146.25;65.65;52096.50;2064436;28;21007;-76
2023/04/07 03:41:00;;;;;;;15.98;10.05;;;;;;;-146.25;65.55;52147.19;2065107;28;20242;-76
2023/04/07 03:42:02;;;;;;;16.67;10.38;;;;;;;-146.25;65.64;52137.06;2071944;28;20042;-76
2023/04/07 03:43:11;;;;;;;15.40;10.40;;;;;;;-146.25;66.31;52137.06;2072282;28;20721;-76
2023/04/07 03:44:13;;;;;;;17.75;10.32;;;;;;;-146.25;65.26;52157.34;2072326;28;20428;-76
2023/04/07 03:45:16;;;;;;;13.52;9.82;;;;;;;-146.25;65.92;52165.44;2064435;28;20046;-76
2023/04/07 03:46:22;;;;;;;14.85;10.25;;;;;;;-146.25;66.13;52135.03;2073096;28;20053;-76
2023/04/07 03:47:26;;;;;;;16.52;10.30;;;;;;;-146.25;66.05;52120.84;2072913;28;20946;-76
2023/04/07 03:48:33;;;;;;;16.98;10.68;;;;;;;-146.25;65.97;52143.13;2072345;28;20050;-76
2023/04/07 03:49:41;;;;;;;14.13;10.35;;;;;;;-146.25;65.75;52147.19;2072806;28;20073;-76
2023/04/07 03:50:44;;;;;;;17.95;11.20;;;;;;;-146.25;66.19;52124.91;2072236;28;20459;-77
2023/04/07 03:51:49;;;;;;;14.68;10.63;;;;;;;-146.25;66.26;52124.91;2064765;28;20963;-76
2023/04/07 03:52:53;;;;;;;18.38;11.50;;;;;;;-146.25;65.27;52108.66;2064399;28;20817;-77
2023/04/07 03:54:00;;;;;;;16.20;10.27;;;;;;;-146.25;66.08;52143.13;2064859;28;20194;-76
2023/04/07 03:55:12;;;;;;;17.60;10.55;;;;;;;-146.25;66.18;52143.13;2065882;28;20051;-76
2023/04/07 03:56:15;;;;;;;13.73;10.10;;;;;;;-146.25;66.00;52143.13;2072206;28;20365;-76
2023/04/07 03:57:21;;;;;;;14.85;10.65;;;;;;;-146.25;65.29;52108.66;2064949;28;20094;-76
2023/04/07 03:58:24;;;;;;;17.92;11.20;;;;;;;-146.25;65.67;52133.00;2064274;28;20047;-75
2023/04/07 03:59:26;;;;;;;13.80;10.88;;;;;;;-146.25;65.21;52141.13;2072495;28;20800;-76
2023/04/07 04:00:33;;;;;;;15.25;11.05;;;;;;;-146.25;65.36;52135.03;2064175;28;20093;-76
2023/04/07 04:01:42;;;;;;;15.82;11.40;;;;;;;-146.25;65.23;52141.13;2056227;28;20043;-76
2023/04/07 04:02:50;;;;;;;15.70;11.13;;;;;;;-146.25;65.75;52116.78;2058702;28;20044;-76
2023/04/07 04:03:54;;;;;;;17.13;10.60;;;;;;;-146.25;65.78;52147.19;2072902;28;20891;-76
2023/04/07 04:05:01;;;;;;;18.58;11.68;;;;;;;-146.25;65.79;52165.44;2071739;28;21015;-76
2023/04/07 04:06:03;;;;;;;15.88;10.90;;;;;;;-146.25;66.07;52177.59;2072725;28;21002;-77
2023/04/07 04:07:06;;;;;;;14.15;10.15;;;;;;;-146.25;66.07;52116.78;2071934;28;20050;-76
2023/04/07 04:08:20;;;;;;;15.32;10.30;;;;;;;-146.25;65.54;52104.63;2065985;28;20051;-76
2023/04/07 04:09:21;;;;;;;16.23;10.50;;;;;;;-146.25;66.12;52139.09;2063755;28;20875;-76
2023/04/07 04:10:26;;;;;;;14.55;10.75;;;;;;;-146.25;65.40;52149.22;2072291;28;20908;-76
2023/04/07 04:11:28;;;;;;;14.88;10.90;;;;;;;-146.25;65.63;52128.94;2072527;28;20085;-76
2023/04/07 04:12:34;;;;;;;16.35;10.50;;;;;;;-146.25;65.88;52118.81;2063884;28;20047;-77
2023/04/07 04:13:41;;;;;;;16.20;10.90;;;;;;;-146.25;65.13;52141.13;2058363;28;20058;-76
2023/04/07 04:14:43;;;;;;;17.63;10.90;;;;;;;-146.25;65.19;52153.28;2064254;28;20035;-76
2023/04/07 04:15:47;;;;;;;14.80;11.10;;;;;;;-146.25;65.52;52145.16;2072396;28;20054;-76
2023/04/07 04:16:51;;;;;;;17.23;10.35;;;;;;;-146.25;65.28;52112.72;2072443;28;20042;-76
2023/04/07 04:18:00;;;;;;;16.52;10.40;;;;;;;-146.25;65.47;52149.22;2065162;28;20149;-76
2023/04/07 04:19:04;;;;;;;14.50;10.13;;;;;;;-146.25;65.71;52179.63;2072150;28;20816;-77
2023/04/07 04:20:08;;;;;;;13.93;11.00;;;;;;;-146.25;65.87;52141.13;2072076;28;20041;-76
2023/04/07 04:21:20;;;;;;;13.73;9.73;;;;;;;-146.25;64.99;52108.66;2072063;28;20116;-77
2023/04/07 04:22:21;;;;;;;16.40;11.70;;;;;;;-146.25;65.42;52110.69;2064267;28;21098;-76
2023/04/07 04:23:27;;;;;;;15.27;11.00;;;;;;;-146.25;65.04;52112.72;2072225;28;20153;-77
2023/04/07 04:24:31;;;;;;;12.48;9.90;;;;;;;-146.25;65.19;52155.31;2072336;28;20042;-77
2023/04/07 04:25:38;;;;;;;14.60;11.30;;;;;;;-146.25;65.22;52126.91;2071974;28;20185;-77
2023/04/07 04:26:44;;;;;;;16.83;10.77;;;;;;;-146.25;65.26;52159.34;2056988;28;20043;-77
2023/04/07 04:27:47;;;;;;;16.80;11.20;;;;;;;-146.25;65.70;52177.59;2064518;28;20050;-77
2023/04/07 04:28:53;;;;;;;15.75;10.88;;;;;;;-146.25;66.09;52153.28;2072311;28;20049;-77
2023/04/07 04:29:56;;;;;;;15.60;10.68;;;;;;;-146.25;65.71;52169.50;2071858;28;20055;-77
2023/04/07 04:31:10;;;;;;;14.35;10.45;;;;;;;-146.25;65.31;52124.91;2073511;28;20046;-77
2023/04/07 04:32:16;;;;;;;14.68;10.25;;;;;;;-146.25;65.39;52133.00;2080170;28;20116;-77
2023/04/07 04:33:18;;;;;;;17.23;11.20;;;;;;;-146.25;65.97;52177.59;2072223;28;20039;-77
2023/04/07 04:34:28;;;;;;;16.27;10.80;;;;;;;-146.25;65.94;52126.91;2065075;28;20023;-77
2023/04/07 04:35:30;;;;;;;15.38;10.77;;;;;;;-146.25;66.05;52141.13;2072205;28;20974;-77
2023/04/07 04:36:43;;;;;;;15.77;10.77;;;;;;;-146.25;65.65;52143.13;2081190;28;21017;-77
2023/04/07 04:37:46;;;;;;;18.92;10.90;;;;;;;-146.25;65.97;52167.47;2071775;28;20038;-77
2023/04/07 04:38:48;;;;;;;14.57;10.52;;;;;;;-146.25;65.84;52163.41;2072163;28;20053;-76
2023/04/07 04:39:55;;;;;;;15.20;11.40;;;;;;;-146.25;65.97;52151.25;2064587;28;20189;-77
2023/04/07 04:40:57;;;;;;;13.32;9.95;;;;;;;-146.25;65.90;52135.03;2064131;28;20038;-77
2023/04/07 04:42:04;;;;;;;14.32;10.95;;;;;;;-146.25;66.25;52151.25;2056397;28;20158;-77
2023/04/07 04:43:09;;;;;;;16.15;11.13;;;;;;;-146.25;66.02;52153.28;2057996;28;20374;-77
2023/04/07 04:44:13;;;;;;;14.93;10.93;;;;;;;-146.25;65.59;52128.94;2064219;28;20923;-76
2023/04/07 04:45:16;;;;;;;17.63;11.43;;;;;;;-146.25;65.97;52116.78;2064035;28;20197;-77
2023/04/07 04:46:23;;;;;;;15.32;11.02;;;;;;;-146.25;65.82;52143.13;2056030;28;20054;-77
2023/04/07 04:47:27;;;;;;;15.77;10.63;;;;;;;-146.25;66.00;52126.91;2065278;28;20054;-77
2023/04/07 04:48:31;;;;;;;14.48;11.15;;;;;;;-146.25;66.14;52151.25;2071944;28;20031;-77
2023/04/07 04:49:33;;;;;;;15.82;11.48;;;;;;;-146.25;66.04;52165.44;2063795;28;26618;-77
2023/04/07 04:50:37;;;;;;;15.63;11.10;;;;;;;-146.25;66.06;52139.09;2064366;28;20109;-78
2023/04/07 04:51:44;;;;;;;19.65;11.40;;;;;;;-146.25;66.02;52128.94;2064347;28;20820;-77
2023/04/07 04:52:50;;;;;;;16.83;10.50;;;;;;;-146.25;65.92;52157.34;2064342;28;20054;-77
2023/04/07 04:53:56;;;;;;;16.88;11.18;;;;;;;-146.25;65.89;52076.22;2064256;28;20880;-77